Station: Victor Harbor

  Atmospheric Gas Attenuation - ITU Rec 676-11   --------------- db/100km ---------------
Date Time Temp RH % AH g/m3 Dew Point Wind Direction Speed kph Gust kph Barometer mB Rainfall Since 9am 24GHz 47GHz 76GHz 122GHz 134GHz 241GHz
02 09:00 16.7 85 12.08 14.1 9 1013.1 0 26.9 30.8 52.7 138.8 141.7 490.4
01 09:00 18.2 87 13.52 16 17 1013.1 0 29.9 32.8 57.9 152.9 159.6 552.8
30 09:00 24.6 34 7.65 7.8 9 1013.1 0 17.1 21.7 31.6 82.6 75.2 258.4
29 09:00 15.7 82 10.97 12.6 4 1013.1 0 24.6 29.2 48.5 127.8 127.8 441.6
28 09:00 17 79 11.43 13.3 9 1013.1 0 25.5 29.6 49.7 130.8 132.0 456.5
27 09:00 15.9 82 11.1 12.8 19 1013.1 0 24.8 29.4 49.0 128.9 129.3 446.8
26 09:00 14 77 9.29 10.1 37 1013.1 1 21.1 27.0 42.5 111.6 107.3 369.8
25 09:00 16 85 11.58 13.5 22 1013.1 0.2 25.9 30.2 51.0 134.3 135.9 469.9
24 09:00 18.4 98 15.41 18.1 0 1013.1 6 33.9 36.2 66.5 175.6 187.5 650.2
23 09:00 15.5 84 11.1 12.8 7 1013.1 0 24.9 29.5 49.2 129.6 130.0 449.2
22 09:00 14.7 76 9.57 10.5 11 1013.1 0 21.6 27.2 43.3 113.7 110.1 379.7
21 09:00 13.9 84 10.07 11.3 15 1013.1 0 22.7 28.3 45.8 120.5 118.2 407.7
20 09:00 14.1 81 9.83 10.9 13 1013.1 2 22.2 27.8 44.7 117.5 114.6 395.0
19 09:00 14.3 90 11.06 12.7 15 1013.1 0 24.8 29.9 49.8 131.2 131.5 454.2
18 09:00 26.5 45 11.26 13.8 28 1013.1 0.2 24.5 26.3 43.4 114.3 114.8 397.4
17 09:00 15.5 62 8.2 8.2 11 1013.1 0 18.7 24.8 37.4 98.1 91.1 313.3
16 09:00 13.5 76 8.89 9.4 6 1013.1 3 20.2 26.4 41.1 108.0 102.6 353.3
15 09:00 12.5 89 9.79 10.8 13 1013.1 0.8 22.2 28.3 45.4 119.5 116.4 401.3
14 09:00 13.3 65 7.51 6.9 28 1013.1 0.6 17.3 24.3 35.7 93.6 84.8 290.9
13 09:00 14 66 7.96 7.7 22 1013.1 3 18.2 24.8 37.2 97.4 89.8 308.4
12 09:00 14 83 10.01 11.2 19 1013.1 7 22.6 28.2 45.5 119.6 117.2 404.2
11 09:00 12.7 69 7.68 7.1 28 1013.1 0 17.7 24.7 36.7 96.1 87.7 300.8
10 09:00 14.5 59 7.34 6.7 15 1013.1 0 16.9 23.7 34.6 90.5 81.4 279.0
09 09:00 14 76 9.17 9.9 4 1013.1 0 20.8 26.8 42.0 110.3 105.7 364.1
08 09:00 13.9 74 8.87 9.4 7 1013.1 0 20.2 26.3 40.8 107.2 101.8 350.5
07 09:00 14.5 66 8.21 8.3 9 1013.1 2 18.7 25.1 37.9 99.4 92.4 317.7
06 09:00 18.9 84 13.61 16.2 15 1013.1 3 30.0 32.7 57.8 152.6 159.4 552.4
05 09:00 15.8 89 11.98 14 11 1013.1 0 26.7 31.0 52.8 139.3 142.0 491.1
04 09:00 15.4 73 9.59 10.7 13 1013.1 3 21.6 27.0 43.0 112.9 109.4 377.2
03 09:00 19.3 90 14.93 17.7 9 1013.1 5 32.8 35.0 63.5 167.6 178.0 617.3
02 09:00 19.8 48 8.2 8.5 15 1013.1 0 18.5 23.6 35.5 92.9 86.3 296.9
01 09:00 16.9 47 6.76 5.7 17 1013.1 0 15.5 22.2 31.4 82.2 72.0 246.5
31 09:00 13.9 74 8.87 9.4 9 1013.1 0.2 20.2 26.3 40.8 107.2 101.8 350.5
30 09:00 11.2 89 9.02 9.4 6 1013.1 0.4 20.6 27.4 42.9 112.7 107.6 370.2
29 09:00 13.3 69 7.97 7.8 19 1013.1 22 18.3 25.0 37.5 98.4 90.7 311.6
28 09:00 14.9 93 11.85 13.8 15 1013.1 0.8 26.5 31.1 52.9 139.4 141.8 490.3
27 09:00 17.2 61 8.93 9.6 11 1013.1 0 20.1 25.4 39.4 103.4 98.4 338.9
26 09:00 15.8 43 5.79 3.3 13 1013.1 0 13.5 21.1 28.4 74.1 61.6 209.8
25 09:00 12.8 68 7.62 7 19 1013.1 0 17.5 24.6 36.4 95.3 86.8 297.7
24 09:00 14.6 72 9.01 9.6 11 1013.1 0 20.4 26.3 41.0 107.8 102.8 353.9
23 09:00 14.5 71 8.83 9.4 26 1013.1 0.8 20.0 26.1 40.4 106.0 100.5 346.0
22 09:00 15.9 80 10.83 12.4 13 1013.1 0 24.2 28.9 47.8 125.9 125.5 433.7
21 09:00 17.5 79 11.78 13.8 11 1013.1 0.2 26.2 30.0 50.8 133.9 136.0 470.6
20 09:00 16.2 44 6.07 3.9 22 1013.1 0 14.1 21.4 29.3 76.3 64.6 220.1
19 09:00 14.5 84 10.45 11.9 13 1013.1 0 23.5 28.8 47.1 123.8 122.5 423.0
18 09:00 15 75 9.62 10.6 13 1013.1 0 21.7 27.2 43.3 113.8 110.4 380.6
17 09:00 12.8 76 8.51 8.8 4 1013.1 0 19.4 26.0 39.9 104.8 98.5 338.6
16 09:00 13 84 9.53 10.3 9 1013.1 0.8 21.6 27.7 44.0 115.8 112.0 386.1
15 09:00 12.9 84 9.47 10.2 15 1013.1 18 21.5 27.6 43.8 115.2 111.4 383.7
14 09:00 11.1 86 8.66 8.9 13 1013.1 2 19.9 26.8 41.4 108.8 102.7 353.2
13 09:00 12.5 82 9.02 9.5 15 1013.1 0.2 20.6 27.0 42.2 110.8 105.7 364.0
12 09:00 12.5 89 9.79 10.8 4 1013.1 0 22.2 28.3 45.4 119.5 116.4 401.3
11 09:00 11 85 8.51 8.6 13 1013.1 0.8 19.5 26.6 40.9 107.2 100.8 346.5
10 09:00 12 72 7.67 7.2 15 1013.1 0.4 17.7 24.9 36.9 96.8 88.3 303.0
09 09:00 14 74 8.93 9.5 11 1013.1 0 20.3 26.4 41.0 107.7 102.5 352.9
08 09:00 10.4 92 8.87 9.2 11 1013.1 0 20.3 27.4 42.7 112.1 106.6 366.7
07 09:00 10.6 83 8.1 7.9 15 1013.1 0.4 18.7 26.0 39.4 103.2 95.7 328.7
06 09:00 9.9 99 9.25 9.7 4 1013.1 0 21.2 28.2 44.6 117.2 112.7 387.9
05 09:00 13.5 75 8.77 9.2 17 1013.1 2 20.0 26.3 40.6 106.7 101.0 347.7
04 09:00 10.9 83 8.26 8.2 26 1013.1 4 19.0 26.2 39.9 104.6 97.5 335.0
03 09:00 15.5 89 11.76 13.7 19 1013.1 13 26.3 30.7 52.1 137.2 139.4 482.0
26 09:00 10.9 69 6.86 5.5 22 1013.1 0 16.0 23.9 34.2 89.6 79.0 270.2
25 09:00 13.2 73 8.38 8.6 13 1013.1 1 19.1 25.7 39.2 102.9 96.2 330.8
24 09:00 13.7 86 10.18 11.4 26 1013.1 0 23.0 28.6 46.4 122.0 120.0 414.1
23 09:00 14.9 77 9.81 10.9 19 1013.1 0 22.1 27.5 44.1 116.0 113.1 390.0
22 09:00 13 91 10.32 11.5 15 1013.1 0.6 23.3 29.0 47.4 124.7 123.1 424.8
21 09:00 12.5 63 6.93 5.7 20 1013.1 5 16.1 23.6 33.8 88.5 78.3 267.9
20 09:00 11.5 74 7.64 7.1 19 1013.1 4 17.6 25.0 37.1 97.1 88.5 303.5
19 09:00 14.9 76 9.69 10.7 37 1013.1 0 21.9 27.3 43.6 114.7 111.5 384.4
18 09:00 13.5 65 7.6 7.1 28 1013.1 1 17.5 24.4 36.0 94.3 85.7 294.2
17 09:00 21.6 34 6.45 5 19 1013.1 0 14.7 20.7 28.7 74.8 64.5 220.7
16 09:00 11.7 65 6.8 5.4 17 1013.1 0 15.8 23.6 33.7 88.1 77.4 264.8
15 09:00 12 64 6.82 5.5 13 1013.1 0 15.9 23.6 33.6 88.0 77.4 264.7
14 09:00 10.5 69 6.69 5 4 1013.1 0 15.7 23.8 33.8 88.3 77.2 263.9
13 09:00 12.3 77 8.36 8.5 17 1013.1 5 19.1 25.9 39.6 103.8 97.1 333.7
12 09:00 12.6 68 7.52 7 24 1013.1 0 17.3 24.5 36.1 94.5 85.7 293.9
11 09:00 16.6 86 12.15 14.3 19 1013.1 0 27.0 31.0 53.0 139.8 142.9 494.5
10 09:00 14.9 74 9.43 10.3 11 1013.1 0 21.3 26.9 42.6 111.9 108.0 372.1
09 09:00 19.8 37 6.32 4.7 20 1013.1 0 14.5 20.9 28.8 75.3 64.5 220.5
08 09:00 14.5 80 9.95 11.1 9 1013.1 0 22.4 27.9 44.9 118.2 115.6 398.8
07 09:00 12.4 85 9.29 9.9 9 1013.1 0.4 21.1 27.5 43.4 113.9 109.6 377.5
06 09:00 11.9 92 9.74 10.7 11 1013.1 0.8 22.1 28.4 45.6 119.8 116.6 402.0
05 09:00 11.5 84 8.68 8.9 9 1013.1 7 19.9 26.7 41.3 108.4 102.5 352.4
04 09:00 9.8 93 8.63 8.8 6 1013.1 2 19.9 27.1 42.0 110.3 104.0 357.7
03 09:00 12.5 89 9.79 10.8 0 1013.1 0.2 22.2 28.3 45.4 119.5 116.4 401.3
02 09:00 26.7 18 4.56 1 22 1013.1 0 10.6 17.3 21.3 55.2 41.9 141.6
01 09:00 13.4 82 9.53 10.5 9 1013.1 0 21.6 27.5 43.8 115.2 111.5 384.1
31 09:00 16.8 59 8.43 8.8 9 1013.1 0 19.1 24.8 37.7 98.8 92.5 318.3
30 09:00 14.7 73 9.19 9.9 19 1013.1 0 20.8 26.6 41.7 109.6 105.0 361.8
29 09:00 10.9 83 8.26 8.2 17 1013.1 0.6 19.0 26.2 39.9 104.6 97.5 335.0
28 09:00 13.8 80 9.53 10.5 15 1013.1 0 21.6 27.4 43.6 114.6 110.9 382.2
27 09:00 10 88 8.27 8.1 9 1013.1 0 19.1 26.5 40.4 105.9 98.8 339.4
26 09:00 11.1 70 7.05 5.9 15 1013.1 0.8 16.4 24.2 34.9 91.4 81.2 278.1
25 09:00 10.4 93 8.97 9.4 0 1013.1 4 20.6 27.5 43.1 113.3 108.0 371.6
24 09:00 10.1 93 8.8 9.1 13 1013.1 5 20.2 27.3 42.5 111.8 106.0 364.6
23 09:00 9.5 85 7.74 7.2 24 1013.1 3 17.9 25.7 38.4 100.7 92.2 316.1
22 09:00 14.9 73 9.3 10.1 17 1013.1 0 21.0 26.7 42.0 110.5 106.2 366.0
21 09:00 15.4 83 10.9 12.5 13 1013.1 0 24.4 29.2 48.4 127.5 127.3 439.9
20 09:00 16.2 86 11.86 13.9 17 1013.1 0 26.4 30.6 52.0 137.1 139.5 482.6
19 09:00 12 77 8.21 8.1 13 1013.1 0 18.8 25.8 39.1 102.6 95.5 328.0

Last Refresh: 03-Dec-2021 07:42:26

Bureau of Meteorology